Time;durP1;ratioP1;P1;durP2;ratioP2;P2;SDS_P1;SDS_P2;PMS_P1;PMS_P2;Temp;Humidity;BMP_temperature;BMP_pressure;BME280_temperature;BME280_humidity;BME280_pressure;Samples;Min_cycle;Max_cycle;Signal;HPM_P1;HPM_P2
2023/01/19 00:00:51;;;;;;;4.15;3.67;;;3.20;99.90;;;;;;5113543;28;20079;-72
2023/01/19 00:03:18;;;;;;;4.38;3.67;;;3.20;99.90;;;;;;5105818;28;20046;-71
2023/01/19 00:05:45;;;;;;;3.70;3.33;;;3.20;99.90;;;;;;5112684;27;20075;-70
2023/01/19 00:08:15;;;;;;;3.40;3.10;;;3.20;99.90;;;;;;5112957;28;20047;-71
2023/01/19 00:10:46;;;;;;;4.18;3.72;;;3.30;99.90;;;;;;5110934;28;20046;-72
2023/01/19 00:13:13;;;;;;;5.50;3.58;;;3.30;99.90;;;;;;5112842;28;20093;-71
2023/01/19 00:15:41;;;;;;;3.67;3.00;;;3.30;99.90;;;;;;5113050;28;20111;-71
2023/01/19 00:18:09;;;;;;;3.47;3.17;;;3.20;99.90;;;;;;5091389;28;20059;-71
2023/01/19 00:20:36;;;;;;;4.00;3.10;;;3.20;99.90;;;;;;5093014;28;20065;-70
2023/01/19 00:23:06;;;;;;;4.45;3.10;;;3.20;99.90;;;;;;5112200;28;20047;-70
2023/01/19 00:25:41;;;;;;;3.53;2.97;;;3.20;99.90;;;;;;5112619;28;20055;-70
2023/01/19 00:28:08;;;;;;;2.92;2.55;;;3.10;99.90;;;;;;5113540;28;20059;-71
2023/01/19 00:30:36;;;;;;;2.53;2.33;;;3.10;99.90;;;;;;5110700;28;20416;-71
2023/01/19 00:33:03;;;;;;;2.63;2.42;;;3.10;99.90;;;;;;5113010;28;20488;-70
2023/01/19 00:35:30;;;;;;;2.65;2.45;;;3.10;99.90;;;;;;5112735;28;20450;-71
2023/01/19 00:37:58;;;;;;;2.40;2.20;;;3.10;99.90;;;;;;5112084;28;20221;-70
2023/01/19 00:40:26;;;;;;;2.13;1.92;;;3.10;99.90;;;;;;5111038;28;20044;-71
2023/01/19 00:42:55;;;;;;;2.67;2.30;;;3.10;99.90;;;;;;5107359;28;20043;-71
2023/01/19 00:45:24;;;;;;;2.10;1.70;;;3.10;99.90;;;;;;5111430;28;20053;-72
2023/01/19 00:47:53;;;;;;;2.08;1.88;;;3.10;99.90;;;;;;5110923;28;20046;-71
2023/01/19 00:50:21;;;;;;;2.33;1.90;;;3.00;99.90;;;;;;5112741;28;20427;-71
2023/01/19 00:52:48;;;;;;;1.83;1.73;;;3.00;99.90;;;;;;5112226;28;20088;-71
2023/01/19 00:55:16;;;;;;;2.83;1.60;;;3.00;99.90;;;;;;5111411;28;20047;-71
2023/01/19 00:57:43;;;;;;;1.60;1.30;;;3.00;99.90;;;;;;5109285;28;20047;-70
2023/01/19 01:00:18;;;;;;;2.03;1.75;;;2.90;99.90;;;;;;5110899;28;20487;-70
2023/01/19 01:02:45;;;;;;;1.67;1.58;;;2.90;99.90;;;;;;5112139;28;20048;-71
2023/01/19 01:05:13;;;;;;;1.48;1.38;;;2.80;99.90;;;;;;5112479;28;20062;-72
2023/01/19 01:07:43;;;;;;;2.28;2.08;;;2.80;99.90;;;;;;5109222;28;20047;-70
2023/01/19 01:10:13;;;;;;;1.63;1.20;;;2.80;99.90;;;;;;5111764;28;20055;-71
2023/01/19 01:12:41;;;;;;;3.08;1.35;;;2.70;99.90;;;;;;5112303;28;20586;-71
2023/01/19 01:15:11;;;;;;;1.15;1.05;;;2.70;99.90;;;;;;5111199;28;20527;-71
2023/01/19 01:17:45;;;;;;;1.30;1.20;;;2.60;99.90;;;;;;5105541;27;20090;-71
2023/01/19 01:20:16;;;;;;;1.08;0.98;;;2.60;99.90;;;;;;5108289;28;20523;-71
2023/01/19 01:22:46;;;;;;;1.48;1.38;;;2.60;99.90;;;;;;5111240;28;20039;-71
2023/01/19 01:25:15;;;;;;;3.33;2.38;;;2.60;99.90;;;;;;5111293;28;20055;-71
2023/01/19 01:27:43;;;;;;;1.20;1.10;;;2.60;99.90;;;;;;5109627;28;20058;-70
2023/01/19 01:30:14;;;;;;;2.33;1.15;;;2.50;99.90;;;;;;5111074;28;20074;-71
2023/01/19 01:32:42;;;;;;;0.80;0.80;;;2.50;99.90;;;;;;5111260;28;20075;-70
2023/01/19 01:35:11;;;;;;;1.58;1.48;;;2.60;99.90;;;;;;5111998;28;20051;-71
2023/01/19 01:37:39;;;;;;;1.40;1.30;;;2.50;99.90;;;;;;5111318;28;20052;-71
2023/01/19 01:40:08;;;;;;;1.05;0.95;;;2.50;99.90;;;;;;5111781;28;20464;-70
2023/01/19 01:42:36;;;;;;;1.20;1.02;;;2.60;99.90;;;;;;5110992;28;20139;-70
2023/01/19 01:45:10;;;;;;;1.23;1.13;;;2.60;99.90;;;;;;5111949;28;20492;-71
2023/01/19 01:47:44;;;;;;;1.10;1.00;;;2.60;99.90;;;;;;5107958;28;20051;-70
2023/01/19 01:50:18;;;;;;;1.20;1.10;;;2.60;99.90;;;;;;5110620;28;20507;-69
2023/01/19 01:52:50;;;;;;;1.60;1.50;;;2.70;99.90;;;;;;5110518;28;20142;-69
2023/01/19 01:55:20;;;;;;;1.30;1.10;;;2.70;99.90;;;;;;5110325;28;20513;-71
2023/01/19 01:57:51;;;;;;;2.25;1.45;;;2.70;99.90;;;;;;5109799;28;20058;-71
2023/01/19 02:00:19;;;;;;;1.30;1.20;;;2.70;99.90;;;;;;5110363;28;20527;-71
2023/01/19 02:02:50;;;;;;;1.50;1.40;;;2.70;99.90;;;;;;5111601;28;20040;-70
2023/01/19 02:05:22;;;;;;;2.20;1.15;;;2.70;99.90;;;;;;5108390;28;20047;-69
2023/01/19 02:13:29;;;;;;;1.27;1.17;;;2.70;99.90;;;;;;5111374;28;20138;-70
2023/01/19 02:16:00;;;;;;;1.15;1.05;;;2.70;99.90;;;;;;5108513;28;20039;-70
2023/01/19 02:18:31;;;;;;;2.00;1.63;;;2.70;99.90;;;;;;5108766;28;20047;-70
2023/01/19 02:21:09;;;;;;;1.38;1.27;;;2.70;99.90;;;;;;5111338;28;20043;-70
2023/01/19 02:23:44;;;;;;;2.40;1.60;;;2.70;99.90;;;;;;5110627;28;20496;-70
2023/01/19 02:26:15;;;;;;;1.27;1.17;;;2.80;99.90;;;;;;5108063;28;20075;-70
2023/01/19 02:28:47;;;;;;;1.40;1.30;;;2.80;99.90;;;;;;5111201;28;20147;-71
2023/01/19 02:31:15;;;;;;;1.58;1.48;;;2.80;99.90;;;;;;5111228;28;20048;-70
2023/01/19 02:33:42;;;;;;;1.85;1.70;;;2.80;99.90;;;;;;5110719;28;20063;-70
2023/01/19 02:36:13;;;;;;;1.52;1.40;;;2.90;99.90;;;;;;5109020;28;20054;-71
2023/01/19 02:38:44;;;;;;;2.28;1.92;;;2.90;99.90;;;;;;5108484;28;20427;-71
2023/01/19 02:41:17;;;;;;;2.45;1.70;;;3.00;99.90;;;;;;5114484;28;20055;-71
2023/01/19 02:43:46;;;;;;;2.60;1.63;;;2.90;99.90;;;;;;5111404;28;20067;-70
2023/01/19 02:46:14;;;;;;;3.17;1.70;;;2.90;99.90;;;;;;5113907;28;20297;-71
2023/01/19 02:48:42;;;;;;;4.28;1.23;;;2.90;99.90;;;;;;5115440;28;20047;-70
2023/01/19 02:51:15;;;;;;;2.15;0.95;;;3.00;99.90;;;;;;5112882;28;20044;-70
2023/01/19 02:54:21;;;;;;;1.30;1.20;;;3.00;99.90;;;;;;5115189;28;20056;-70
2023/01/19 02:57:13;;;;;;;1.10;0.90;;;3.00;99.90;;;;;;5093291;28;20493;-70
2023/01/19 03:00:14;;;;;;;1.00;1.00;;;3.00;99.90;;;;;;5097473;28;20058;-72
2023/01/19 03:02:57;;;;;;;3.72;3.05;;;3.00;99.90;;;;;;5094295;28;20052;-71
2023/01/19 03:05:37;;;;;;;2.22;1.63;;;3.10;99.90;;;;;;5101729;28;20075;-71
2023/01/19 03:08:14;;;;;;;1.40;1.20;;;3.10;99.90;;;;;;5114076;28;20470;-71
2023/01/19 03:10:53;;;;;;;1.38;1.02;;;3.10;99.90;;;;;;5114168;28;20655;-71
2023/01/19 03:13:30;;;;;;;1.20;1.10;;;3.10;99.90;;;;;;5098958;28;20295;-71
2023/01/19 03:16:04;;;;;;;1.10;0.80;;;3.10;99.90;;;;;;5114462;28;20044;-72
2023/01/19 03:18:34;;;;;;;2.00;1.42;;;3.10;99.90;;;;;;5113986;28;20044;-71
2023/01/19 03:21:06;;;;;;;1.02;0.93;;;3.10;99.90;;;;;;5114593;28;20047;-71
2023/01/19 03:23:37;;;;;;;0.85;0.85;;;3.00;99.90;;;;;;5111789;28;20074;-70
2023/01/19 03:26:11;;;;;;;0.90;0.90;;;3.00;99.90;;;;;;5111453;28;20085;-70
2023/01/19 03:28:42;;;;;;;0.68;0.68;;;3.00;99.90;;;;;;5113767;28;20047;-70
2023/01/19 03:31:16;;;;;;;0.82;0.82;;;3.00;99.90;;;;;;5115008;28;20056;-71
2023/01/19 03:33:50;;;;;;;1.92;1.70;;;3.00;99.90;;;;;;5113464;28;20442;-70
2023/01/19 03:36:25;;;;;;;1.27;1.00;;;2.90;99.90;;;;;;5112886;28;20143;-70
2023/01/19 03:38:55;;;;;;;1.00;1.00;;;2.90;99.90;;;;;;5093994;28;20097;-70
2023/01/19 03:41:26;;;;;;;1.17;1.00;;;2.90;99.90;;;;;;5094185;28;20428;-70
2023/01/19 03:43:55;;;;;;;1.50;1.00;;;2.90;99.90;;;;;;5093974;28;20151;-71
2023/01/19 03:46:24;;;;;;;1.20;1.10;;;2.90;99.90;;;;;;5105106;28;20583;-71
2023/01/19 03:48:53;;;;;;;2.42;1.23;;;2.90;99.90;;;;;;5114346;28;20043;-72
2023/01/19 03:51:21;;;;;;;1.00;0.90;;;2.90;99.90;;;;;;5113326;28;20456;-72
2023/01/19 03:53:49;;;;;;;1.17;1.10;;;2.90;99.90;;;;;;5107814;28;20460;-70
2023/01/19 03:56:24;;;;;;;2.38;1.33;;;2.90;99.90;;;;;;5080337;28;20040;-72
2023/01/19 03:58:51;;;;;;;1.00;0.60;;;3.00;99.90;;;;;;5092251;28;20125;-72
2023/01/19 04:01:21;;;;;;;3.25;1.30;;;3.00;99.90;;;;;;5091975;28;20047;-72
2023/01/19 04:03:49;;;;;;;1.25;0.80;;;3.00;99.90;;;;;;5097911;28;20051;-72
2023/01/19 04:06:17;;;;;;;1.00;0.88;;;3.10;99.90;;;;;;5103579;28;20067;-73
2023/01/19 04:08:45;;;;;;;1.27;0.93;;;3.10;99.90;;;;;;5113785;28;20043;-72
2023/01/19 04:11:12;;;;;;;1.02;0.85;;;3.20;99.90;;;;;;5104813;28;20051;-71
2023/01/19 04:13:41;;;;;;;1.13;0.70;;;3.20;99.90;;;;;;5103600;28;20588;-71
2023/01/19 04:16:11;;;;;;;1.48;1.00;;;3.20;99.90;;;;;;5113530;28;20046;-74
2023/01/19 04:18:38;;;;;;;0.70;0.60;;;3.20;99.90;;;;;;5113456;28;20542;-75
2023/01/19 04:21:07;;;;;;;1.85;1.17;;;3.20;99.90;;;;;;5104264;28;20385;-74
2023/01/19 04:23:34;;;;;;;0.88;0.82;;;3.10;99.90;;;;;;5101315;28;20151;-74
2023/01/19 04:26:05;;;;;;;2.15;1.45;;;3.10;99.90;;;;;;5102285;28;20139;-75
2023/01/19 04:28:33;;;;;;;1.63;1.30;;;3.10;99.90;;;;;;5098551;28;20051;-74
2023/01/19 04:31:02;;;;;;;1.83;1.52;;;3.10;99.90;;;;;;5112710;28;20508;-75
2023/01/19 04:33:30;;;;;;;2.30;1.48;;;3.10;99.90;;;;;;5110392;28;20086;-74
2023/01/19 04:35:57;;;;;;;5.03;1.20;;;3.10;99.90;;;;;;5104535;27;20124;-73
2023/01/19 04:38:26;;;;;;;1.75;1.33;;;3.20;99.90;;;;;;5103975;28;20147;-74
2023/01/19 04:40:54;;;;;;;1.38;1.27;;;3.20;99.90;;;;;;5092229;28;20131;-68
2023/01/19 04:43:23;;;;;;;1.40;1.08;;;3.20;99.90;;;;;;5099389;28;20050;-75
2023/01/19 04:45:51;;;;;;;3.70;1.25;;;3.20;99.90;;;;;;5102100;28;20093;-75
2023/01/19 04:48:20;;;;;;;4.18;1.15;;;3.20;99.90;;;;;;5101047;28;20388;-75
2023/01/19 04:50:48;;;;;;;1.92;0.88;;;3.20;99.90;;;;;;5105267;28;20526;-75
2023/01/19 04:53:17;;;;;;;1.95;0.90;;;3.20;99.90;;;;;;5096046;28;20135;-74
2023/01/19 04:55:45;;;;;;;0.70;0.60;;;3.20;99.90;;;;;;5105215;28;20048;-68
2023/01/19 04:58:12;;;;;;;1.00;0.60;;;3.20;99.90;;;;;;5105598;28;20055;-68
2023/01/19 05:00:40;;;;;;;0.80;0.70;;;3.20;99.90;;;;;;5111940;27;20039;-68
2023/01/19 05:03:07;;;;;;;0.60;0.60;;;3.30;99.90;;;;;;5111375;27;20150;-67
2023/01/19 05:05:36;;;;;;;0.95;0.50;;;3.30;99.90;;;;;;5103649;28;20051;-70
2023/01/19 05:08:04;;;;;;;0.40;0.40;;;3.30;99.90;;;;;;5109324;28;20504;-71
2023/01/19 05:10:32;;;;;;;0.85;0.43;;;3.30;99.90;;;;;;5100730;28;20454;-69
2023/01/19 05:12:59;;;;;;;0.52;0.52;;;3.40;99.90;;;;;;5110906;28;20059;-68
2023/01/19 05:15:26;;;;;;;3.05;0.80;;;3.40;99.90;;;;;;5110070;28;20147;-68
2023/01/19 05:17:56;;;;;;;0.77;0.60;;;3.40;99.90;;;;;;5099648;28;20081;-69
2023/01/19 05:20:24;;;;;;;1.25;0.70;;;3.40;99.90;;;;;;5099379;28;20058;-69
2023/01/19 05:22:53;;;;;;;0.68;0.60;;;3.50;99.90;;;;;;5102623;28;20048;-69
2023/01/19 05:25:20;;;;;;;0.65;0.65;;;3.60;99.90;;;;;;5097495;28;20052;-72
2023/01/19 05:27:47;;;;;;;1.38;0.90;;;3.60;99.90;;;;;;5105416;28;20111;-73
2023/01/19 05:30:16;;;;;;;2.67;0.95;;;3.60;99.90;;;;;;5089502;28;20052;-73
2023/01/19 05:32:43;;;;;;;0.80;0.80;;;3.60;99.90;;;;;;5071135;28;20055;-72
2023/01/19 05:35:12;;;;;;;1.15;1.05;;;3.70;99.90;;;;;;5094758;28;20048;-69
2023/01/19 05:37:41;;;;;;;1.20;1.10;;;3.70;99.90;;;;;;5108448;28;20088;-71
2023/01/19 05:40:11;;;;;;;1.20;1.10;;;3.70;99.90;;;;;;5108553;28;20139;-68
2023/01/19 05:42:40;;;;;;;1.35;1.20;;;3.80;99.90;;;;;;5110763;28;20075;-67
2023/01/19 05:45:09;;;;;;;2.40;1.30;;;3.80;99.90;;;;;;5106180;28;20504;-68
2023/01/19 05:47:36;;;;;;;1.55;1.33;;;3.90;99.90;;;;;;5102428;28;20054;-68
2023/01/19 05:50:05;;;;;;;2.80;1.70;;;3.90;99.90;;;;;;5122005;27;20074;-69
2023/01/19 05:52:32;;;;;;;1.95;1.55;;;4.00;99.90;;;;;;5104603;28;20054;-68
2023/01/19 05:55:00;;;;;;;2.15;1.95;;;4.00;99.90;;;;;;5096648;28;20055;-68
2023/01/19 05:57:28;;;;;;;3.63;1.90;;;4.00;99.90;;;;;;5109084;28;20036;-68
2023/01/19 05:59:55;;;;;;;2.60;2.40;;;4.10;99.90;;;;;;5105973;28;20058;-68
2023/01/19 06:02:27;;;;;;;2.75;2.45;;;4.10;99.90;;;;;;5107293;28;20043;-67
2023/01/19 06:04:55;;;;;;;3.20;2.15;;;4.20;99.90;;;;;;5098030;28;20090;-67
2023/01/19 06:07:22;;;;;;;3.38;2.38;;;4.20;99.90;;;;;;5099576;28;20590;-69
2023/01/19 06:09:50;;;;;;;5.05;3.00;;;4.20;99.90;;;;;;5104583;28;20059;-68
2023/01/19 06:12:17;;;;;;;2.90;2.60;;;4.30;99.90;;;;;;5105303;28;20475;-69
2023/01/19 06:14:46;;;;;;;2.85;2.65;;;4.30;99.90;;;;;;5108140;28;20054;-70
2023/01/19 06:17:13;;;;;;;4.25;2.45;;;4.40;99.90;;;;;;5107279;28;20051;-69
2023/01/19 06:19:41;;;;;;;3.65;2.80;;;4.40;99.90;;;;;;5108244;28;20142;-68
2023/01/19 06:22:09;;;;;;;4.57;3.03;;;4.40;99.90;;;;;;5109837;28;20035;-69
2023/01/19 06:24:36;;;;;;;3.67;3.00;;;4.40;99.90;;;;;;5111645;28;20063;-70
2023/01/19 06:27:05;;;;;;;3.63;3.30;;;4.40;99.90;;;;;;5099697;28;20060;-68
2023/01/19 06:29:32;;;;;;;3.70;3.40;;;4.50;99.90;;;;;;5109026;28;20508;-73
2023/01/19 06:32:01;;;;;;;4.45;3.20;;;4.50;99.90;;;;;;5110688;28;20054;-72
2023/01/19 06:34:30;;;;;;;4.53;4.13;;;4.60;99.90;;;;;;5103083;28;20055;-73
2023/01/19 06:36:57;;;;;;;4.93;3.95;;;4.70;99.90;;;;;;5087725;28;20036;-73
2023/01/19 06:39:25;;;;;;;5.47;4.18;;;4.70;99.90;;;;;;5104049;28;20217;-74
2023/01/19 06:41:52;;;;;;;6.25;4.63;;;4.80;99.90;;;;;;5095329;28;20125;-69
2023/01/19 06:44:19;;;;;;;4.75;4.13;;;4.80;99.90;;;;;;5103999;28;20143;-68
2023/01/19 06:46:47;;;;;;;5.15;4.65;;;4.80;99.90;;;;;;5093051;28;20048;-68
2023/01/19 06:49:16;;;;;;;6.80;4.78;;;4.90;99.90;;;;;;5105165;28;20120;-68
2023/01/19 06:51:43;;;;;;;7.30;4.75;;;5.00;99.90;;;;;;5108694;28;20075;-68
2023/01/19 06:54:11;;;;;;;7.93;4.82;;;5.00;99.90;;;;;;5105003;28;20069;-69
2023/01/19 06:56:39;;;;;;;5.60;4.57;;;5.00;99.90;;;;;;5104164;28;20143;-69
2023/01/19 06:59:06;;;;;;;7.25;5.18;;;5.10;99.90;;;;;;5109650;28;20094;-68
2023/01/19 07:01:34;;;;;;;5.32;4.45;;;5.20;99.90;;;;;;5109123;28;20051;-68
2023/01/19 07:04:01;;;;;;;7.30;4.30;;;5.20;99.90;;;;;;5098027;28;20051;-68
2023/01/19 07:06:30;;;;;;;4.43;3.80;;;5.30;99.90;;;;;;5099601;28;20054;-68
2023/01/19 07:08:59;;;;;;;3.53;3.17;;;5.40;99.90;;;;;;5097100;28;20047;-68
2023/01/19 07:11:26;;;;;;;4.95;3.28;;;5.40;99.90;;;;;;5102463;28;20411;-68
2023/01/19 07:13:55;;;;;;;3.92;2.38;;;5.50;99.90;;;;;;5102902;28;20050;-69
2023/01/19 07:16:23;;;;;;;3.88;3.55;;;5.50;99.90;;;;;;5101990;28;20039;-70
2023/01/19 07:18:51;;;;;;;3.40;3.10;;;5.60;99.90;;;;;;5103678;28;20043;-70
2023/01/19 07:21:19;;;;;;;3.83;3.10;;;5.60;99.90;;;;;;5098948;28;20089;-68
2023/01/19 07:23:50;;;;;;;7.03;3.40;;;5.60;99.90;;;;;;5102949;28;20067;-69
2023/01/19 07:26:20;;;;;;;3.20;2.90;;;5.60;99.90;;;;;;5101725;28;20052;-69
2023/01/19 07:28:49;;;;;;;6.88;2.88;;;5.60;99.90;;;;;;5098433;28;20047;-70
2023/01/19 07:31:18;;;;;;;4.07;2.90;;;5.60;99.90;;;;;;5112440;27;20044;-68
2023/01/19 07:33:45;;;;;;;2.95;2.65;;;5.60;99.90;;;;;;5098061;28;20527;-68
2023/01/19 07:36:13;;;;;;;2.13;1.98;;;5.60;99.90;;;;;;5096393;28;20047;-68
2023/01/19 07:38:40;;;;;;;2.95;2.63;;;5.60;99.90;;;;;;5102819;27;20051;-68
2023/01/19 07:41:10;;;;;;;3.00;2.70;;;5.50;99.90;;;;;;5104835;28;20040;-69
2023/01/19 07:43:37;;;;;;;2.80;2.08;;;5.50;99.90;;;;;;5103767;28;20140;-68
2023/01/19 07:46:06;;;;;;;2.97;2.78;;;5.50;99.90;;;;;;5092862;28;20044;-69
2023/01/19 07:48:34;;;;;;;3.10;2.88;;;5.40;99.90;;;;;;5091490;28;20058;-69
2023/01/19 07:51:04;;;;;;;5.10;3.08;;;5.40;99.90;;;;;;5110039;28;20067;-70
2023/01/19 07:53:32;;;;;;;2.80;2.60;;;5.30;99.90;;;;;;5112945;28;20058;-70
2023/01/19 07:55:59;;;;;;;5.68;2.38;;;5.20;99.90;;;;;;5108487;28;20046;-68
2023/01/19 07:58:28;;;;;;;2.67;2.47;;;5.30;99.90;;;;;;5113063;28;20113;-68
2023/01/19 08:00:55;;;;;;;2.47;2.25;;;5.20;99.90;;;;;;5106153;28;20071;-68
2023/01/19 08:03:23;;;;;;;2.10;1.88;;;5.20;99.90;;;;;;5098692;27;20696;-68
2023/01/19 08:05:51;;;;;;;1.73;1.63;;;5.10;99.90;;;;;;5101255;28;20111;-70
2023/01/19 08:08:19;;;;;;;2.10;1.23;;;5.10;99.90;;;;;;5092362;28;20052;-69
2023/01/19 08:10:50;;;;;;;3.03;1.00;;;5.00;99.90;;;;;;5100971;28;20049;-68
2023/01/19 08:13:17;;;;;;;1.27;1.10;;;5.10;99.90;;;;;;5112575;28;20097;-68
2023/01/19 08:15:50;;;;;;;1.27;1.13;;;5.00;99.90;;;;;;5114505;27;20047;-68
2023/01/19 08:18:17;;;;;;;0.60;0.60;;;4.90;99.90;;;;;;5109229;27;20051;-69
2023/01/19 08:20:45;;;;;;;0.73;0.70;;;4.90;99.90;;;;;;5106029;28;20051;-70
2023/01/19 08:23:13;;;;;;;3.15;1.05;;;4.80;99.90;;;;;;5103148;28;20059;-69
2023/01/19 08:25:43;;;;;;;3.38;0.90;;;4.70;99.90;;;;;;5109398;28;20049;-69
2023/01/19 08:28:12;;;;;;;2.10;0.88;;;4.70;99.90;;;;;;5109410;28;20176;-68
2023/01/19 08:30:42;;;;;;;1.63;0.70;;;4.60;99.90;;;;;;5106543;28;20065;-67
2023/01/19 08:33:11;;;;;;;1.13;1.02;;;4.60;99.90;;;;;;5104367;28;20056;-67
2023/01/19 08:35:42;;;;;;;1.15;1.02;;;4.50;99.90;;;;;;5110292;28;20044;-68
2023/01/19 08:38:10;;;;;;;1.70;1.30;;;4.50;99.90;;;;;;5107656;28;20429;-68
2023/01/19 08:40:40;;;;;;;4.80;1.05;;;4.50;99.90;;;;;;5104210;28;20055;-69
2023/01/19 08:43:11;;;;;;;1.40;1.10;;;4.50;99.90;;;;;;5109761;28;20223;-69
2023/01/19 08:45:46;;;;;;;2.22;1.30;;;4.50;99.90;;;;;;5112249;28;20054;-68
2023/01/19 08:48:18;;;;;;;1.30;1.20;;;4.50;99.90;;;;;;5111079;28;20142;-68
2023/01/19 08:50:46;;;;;;;1.83;1.50;;;4.50;99.90;;;;;;5109506;28;20112;-68
2023/01/19 08:53:14;;;;;;;2.35;0.93;;;4.40;99.90;;;;;;5107820;28;20057;-69
2023/01/19 08:55:42;;;;;;;1.10;1.00;;;4.50;99.90;;;;;;5109701;28;20570;-68
2023/01/19 08:58:10;;;;;;;1.30;0.95;;;4.50;99.90;;;;;;5111407;28;20055;-69
2023/01/19 09:00:39;;;;;;;1.75;1.02;;;4.50;99.90;;;;;;5110366;28;20146;-68
2023/01/19 09:03:08;;;;;;;1.27;0.80;;;4.50;99.90;;;;;;5108018;28;20043;-68
2023/01/19 09:05:38;;;;;;;5.18;1.13;;;4.50;99.90;;;;;;5108013;28;20052;-68
2023/01/19 09:08:09;;;;;;;1.20;0.75;;;4.50;99.90;;;;;;5111595;27;20144;-68
2023/01/19 09:10:37;;;;;;;0.95;0.95;;;4.50;99.90;;;;;;5097561;27;20079;-69
2023/01/19 09:13:09;;;;;;;2.03;0.80;;;4.50;99.90;;;;;;5097343;28;20074;-70
2023/01/19 09:15:37;;;;;;;2.25;1.33;;;4.50;99.90;;;;;;5108781;27;20054;-70
2023/01/19 09:18:09;;;;;;;1.23;0.88;;;4.40;99.90;;;;;;5108961;28;20043;-68
2023/01/19 09:20:37;;;;;;;0.88;0.82;;;4.30;99.90;;;;;;5102861;28;20066;-69
2023/01/19 09:23:09;;;;;;;1.65;0.80;;;4.30;99.90;;;;;;5105962;28;20075;-69
2023/01/19 09:25:37;;;;;;;0.85;0.68;;;4.20;99.90;;;;;;5101883;28;20074;-69
2023/01/19 09:28:05;;;;;;;0.90;0.80;;;4.30;99.90;;;;;;5102102;28;20401;-75
2023/01/19 09:30:34;;;;;;;0.85;0.65;;;4.20;99.90;;;;;;5098945;28;20047;-74
2023/01/19 09:33:05;;;;;;;0.95;0.80;;;4.20;99.90;;;;;;5103920;28;20600;-76
2023/01/19 09:35:32;;;;;;;1.33;1.00;;;4.30;99.90;;;;;;5102732;28;20606;-73
2023/01/19 09:38:01;;;;;;;0.52;0.50;;;4.30;99.90;;;;;;5098258;28;20076;-75
2023/01/19 09:40:30;;;;;;;0.60;0.45;;;4.40;99.90;;;;;;5096819;27;20054;-74
2023/01/19 09:43:12;;;;;;;1.00;0.68;;;4.40;99.90;;;;;;5103324;28;20411;-73
2023/01/19 09:45:46;;;;;;;0.50;0.50;;;4.30;99.90;;;;;;5102962;28;20092;-76
2023/01/19 09:48:30;;;;;;;0.60;0.60;;;4.40;99.90;;;;;;5094505;28;20090;-73
2023/01/19 09:51:03;;;;;;;0.65;0.60;;;4.40;99.90;;;;;;5108266;28;20051;-74
2023/01/19 09:53:46;;;;;;;0.82;0.50;;;4.30;99.90;;;;;;5111058;28;20085;-73
2023/01/19 09:56:15;;;;;;;2.70;0.70;;;4.30;99.90;;;;;;5109533;28;20405;-72
2023/01/19 09:58:43;;;;;;;2.63;0.60;;;4.30;99.90;;;;;;5110839;28;20048;-74
2023/01/19 10:01:27;;;;;;;0.15;0.15;;;4.30;99.90;;;;;;5095692;28;20424;-75
2023/01/19 10:04:28;;;;;;;0.40;0.28;;;4.20;99.90;;;;;;5098807;28;20070;-73
2023/01/19 10:07:09;;;;;;;1.60;0.40;;;4.20;99.90;;;;;;5087496;28;20056;-74
2023/01/19 10:09:51;;;;;;;0.52;0.52;;;4.20;99.90;;;;;;5112877;27;20051;-73
2023/01/19 10:12:35;;;;;;;0.52;0.43;;;4.10;99.90;;;;;;5090433;28;20103;-80
2023/01/19 10:15:15;;;;;;;0.65;0.50;;;4.10;99.90;;;;;;5100005;28;20126;-74
2023/01/19 10:17:56;;;;;;;2.42;0.57;;;4.10;99.90;;;;;;5104990;28;20150;-75
2023/01/19 10:20:32;;;;;;;0.50;0.40;;;4.00;99.90;;;;;;5098644;28;20059;-75
2023/01/19 10:23:00;;;;;;;0.65;0.30;;;4.00;99.90;;;;;;5098215;28;20441;-76
2023/01/19 10:25:30;;;;;;;1.17;0.60;;;4.00;99.90;;;;;;5116304;28;20050;-75
2023/01/19 10:28:00;;;;;;;0.88;0.50;;;4.00;99.90;;;;;;5101043;28;20121;-75
2023/01/19 10:30:29;;;;;;;0.93;0.57;;;4.10;99.90;;;;;;5082252;28;20048;-76
2023/01/19 10:32:57;;;;;;;0.60;0.60;;;4.00;99.90;;;;;;5096034;28;20040;-77
2023/01/19 10:35:25;;;;;;;1.00;0.80;;;4.00;99.90;;;;;;5110261;28;20121;-76
2023/01/19 10:37:56;;;;;;;0.40;0.40;;;4.00;99.90;;;;;;5103026;28;20050;-75
2023/01/19 10:40:33;;;;;;;1.35;0.73;;;4.00;99.90;;;;;;5101627;28;20079;-75
2023/01/19 10:43:00;;;;;;;0.52;0.45;;;4.00;99.90;;;;;;5111580;28;20491;-76
2023/01/19 10:45:31;;;;;;;1.65;0.52;;;3.80;99.90;;;;;;5094937;28;20534;-76
2023/01/19 10:48:05;;;;;;;0.88;0.80;;;3.80;99.90;;;;;;5090549;28;20143;-78
2023/01/19 10:50:35;;;;;;;1.27;0.50;;;3.80;99.90;;;;;;5101482;28;20043;-75
2023/01/19 10:53:05;;;;;;;1.73;0.73;;;3.70;99.90;;;;;;5110633;28;20048;-76
2023/01/19 10:55:37;;;;;;;1.77;1.67;;;3.70;99.90;;;;;;5109631;28;20046;-76
2023/01/19 10:58:06;;;;;;;2.53;0.95;;;3.70;99.90;;;;;;5114577;28;20163;-74
2023/01/19 11:00:36;;;;;;;0.30;0.30;;;3.60;99.90;;;;;;5101913;28;20112;-74
2023/01/19 11:03:05;;;;;;;1.00;0.75;;;3.60;99.90;;;;;;5110881;28;20047;-74
2023/01/19 11:05:35;;;;;;;1.25;0.52;;;3.60;99.90;;;;;;5102210;27;20105;-75
2023/01/19 11:08:23;;;;;;;3.05;1.95;;;3.60;99.90;;;;;;5110066;27;20051;-75
2023/01/19 11:11:01;;;;;;;1.35;0.80;;;3.50;99.90;;;;;;5092756;28;20089;-75
2023/01/19 11:13:29;;;;;;;8.35;2.20;;;3.50;99.90;;;;;;5111644;28;20402;-74
2023/01/19 11:16:04;;;;;;;4.75;2.53;;;3.50;99.90;;;;;;5114081;28;20043;-76
2023/01/19 11:18:34;;;;;;;5.63;2.42;;;3.50;99.90;;;;;;5113716;28;20487;-69
2023/01/19 11:21:05;;;;;;;8.00;3.03;;;3.50;99.90;;;;;;5112258;28;20050;-70
2023/01/19 11:23:40;;;;;;;12.15;4.13;;;3.50;99.90;;;;;;5102668;28;20055;-70
2023/01/19 11:26:15;;;;;;;7.53;2.85;;;3.50;99.90;;;;;;5112192;27;20511;-70
2023/01/19 11:28:50;;;;;;;6.28;2.92;;;3.50;99.90;;;;;;5108382;27;20924;-69
2023/01/19 11:31:24;;;;;;;12.68;5.03;;;3.50;99.90;;;;;;5109187;27;20134;-70
2023/01/19 11:33:55;;;;;;;7.38;3.58;;;3.40;99.90;;;;;;5094613;28;20055;-69
2023/01/19 11:36:26;;;;;;;6.63;2.60;;;3.40;99.90;;;;;;5110528;27;20051;-70
2023/01/19 11:38:56;;;;;;;3.50;2.00;;;3.30;99.90;;;;;;5102408;28;20508;-75
2023/01/19 11:41:29;;;;;;;3.38;1.70;;;3.40;99.90;;;;;;5113648;28;20079;-75
2023/01/19 11:44:02;;;;;;;3.53;1.92;;;3.40;99.90;;;;;;5107462;28;20512;-76
2023/01/19 11:46:33;;;;;;;;;;;3.40;99.90;;;;;;5094268;28;20056;-77
2023/01/19 11:49:04;;;;;;;5.05;2.15;;;3.40;99.90;;;;;;5095190;28;20318;-78
2023/01/19 11:51:40;;;;;;;3.08;1.80;;;3.30;99.90;;;;;;5108620;27;20047;-74
2023/01/19 11:54:20;;;;;;;3.92;1.83;;;3.30;99.90;;;;;;5116611;27;20111;-75
2023/01/19 11:56:51;;;;;;;1.50;1.02;;;3.40;99.90;;;;;;5115861;27;20155;-77
2023/01/19 11:59:19;;;;;;;4.65;2.45;;;3.30;99.90;;;;;;5103226;28;20394;-73
2023/01/19 12:01:53;;;;;;;2.85;1.63;;;3.30;99.90;;;;;;5107027;27;20044;-76
2023/01/19 12:04:28;;;;;;;2.28;1.73;;;3.30;99.90;;;;;;5117009;27;20100;-75
2023/01/19 12:06:57;;;;;;;2.63;1.48;;;3.30;99.90;;;;;;5108829;28;20052;-75
2023/01/19 12:09:30;;;;;;;2.83;1.50;;;3.20;99.90;;;;;;5107479;28;20052;-74
2023/01/19 12:12:04;;;;;;;2.47;1.48;;;3.20;99.90;;;;;;5097133;28;20096;-74
2023/01/19 12:14:40;;;;;;;2.22;1.45;;;3.20;99.90;;;;;;5107005;27;20079;-73
2023/01/19 12:17:24;;;;;;;2.03;1.13;;;3.20;99.90;;;;;;5105348;28;20208;-70
2023/01/19 12:20:00;;;;;;;1.38;1.27;;;3.30;99.90;;;;;;5101557;28;20099;-70
2023/01/19 12:22:29;;;;;;;1.40;1.17;;;3.30;99.90;;;;;;5102386;28;20097;-70
2023/01/19 12:25:02;;;;;;;3.17;1.30;;;3.30;99.90;;;;;;5100682;28;20043;-71
2023/01/19 12:27:41;;;;;;;1.27;0.98;;;3.30;99.90;;;;;;5111762;28;20050;-70
2023/01/19 12:30:19;;;;;;;3.40;1.15;;;3.20;99.90;;;;;;5097911;27;20497;-69
2023/01/19 12:32:46;;;;;;;1.85;1.38;;;3.20;99.90;;;;;;5107968;28;20392;-71
2023/01/19 12:35:55;;;;;;;1.95;1.15;;;3.20;99.90;;;;;;5102688;27;20048;-70
2023/01/19 12:38:57;;;;;;;1.48;1.25;;;3.20;99.90;;;;;;5099551;28;20048;-70
2023/01/19 12:41:28;;;;;;;1.35;1.20;;;3.20;99.90;;;;;;5104674;28;20052;-69
2023/01/19 12:44:21;;;;;;;2.83;1.52;;;3.20;99.90;;;;;;5103207;28;20083;-75
2023/01/19 12:46:53;;;;;;;4.30;1.33;;;3.20;99.90;;;;;;5102041;28;20047;-75
2023/01/19 12:49:31;;;;;;;2.75;1.42;;;3.20;99.90;;;;;;5102572;28;20048;-74
2023/01/19 12:52:25;;;;;;;1.55;0.82;;;3.30;99.90;;;;;;5097977;28;20134;-75
2023/01/19 12:54:59;;;;;;;4.05;1.50;;;3.20;99.90;;;;;;5106342;27;20057;-75
2023/01/19 12:57:31;;;;;;;3.15;1.55;;;3.20;99.90;;;;;;5099945;28;20108;-74
2023/01/19 13:00:04;;;;;;;2.10;1.20;;;3.30;99.90;;;;;;5093916;28;20044;-74
2023/01/19 13:02:52;;;;;;;2.10;1.15;;;3.20;99.90;;;;;;5095086;28;20108;-76
2023/01/19 13:05:39;;;;;;;2.13;1.08;;;3.20;99.90;;;;;;5101744;28;20055;-76
2023/01/19 13:08:33;;;;;;;1.23;0.88;;;3.10;99.90;;;;;;5083659;28;20054;-74
2023/01/19 13:11:20;;;;;;;0.90;0.68;;;3.20;99.90;;;;;;5094343;28;20043;-70
2023/01/19 13:14:33;;;;;;;6.13;0.70;;;3.10;99.90;;;;;;5099979;28;20048;-69
2023/01/19 13:17:32;;;;;;;1.48;0.95;;;3.10;99.90;;;;;;5101426;28;20140;-69
2023/01/19 13:20:23;;;;;;;1.17;0.60;;;3.10;99.90;;;;;;5068419;28;20050;-69
2023/01/19 13:23:20;;;;;;;1.90;0.60;;;3.20;99.90;;;;;;5097705;28;20129;-74
2023/01/19 13:26:03;;;;;;;1.80;0.70;;;3.20;99.90;;;;;;5085000;28;20139;-71